Time;durP1;ratioP1;P1;durP2;ratioP2;P2;SDS_P1;SDS_P2;PMS_P1;PMS_P2;Temp;Humidity;BMP_temperature;BMP_pressure;BME280_temperature;BME280_humidity;BME280_pressure;Samples;Min_cycle;Max_cycle;Signal;HPM_P1;HPM_P2
2021/07/26 00:01:58;;;;;;;3.93;3.27;;;;;;;;;;5107037;28;20182;-80
2021/07/26 00:04:24;;;;;;;3.90;3.50;;;;;;;;;;5073359;28;20186;-81
2021/07/26 00:06:50;;;;;;;3.70;3.00;;;;;;;;;;5078424;28;20212;-81
2021/07/26 00:09:16;;;;;;;4.03;2.90;;;;;;;;;;5073022;28;20182;-80
2021/07/26 00:11:42;;;;;;;3.50;3.20;;;;;;;;;;5086479;28;20656;-80
2021/07/26 00:14:08;;;;;;;3.40;3.10;;;;;;;;;;5073186;28;20177;-81
2021/07/26 00:16:34;;;;;;;3.93;3.23;;;;;;;;;;5072695;28;20181;-80
2021/07/26 00:19:00;;;;;;;3.37;2.93;;;;;;;;;;5091215;28;20293;-80
2021/07/26 00:21:26;;;;;;;3.53;3.23;;;;;;;;;;5074250;28;20213;-80
2021/07/26 00:23:52;;;;;;;3.30;2.97;;;;;;;;;;5106801;28;20183;-80
2021/07/26 00:26:19;;;;;;;3.60;3.30;;;;;;;;;;5069023;28;20183;-81
2021/07/26 00:28:45;;;;;;;3.50;3.20;;;;;;;;;;5069737;28;20206;-80
2021/07/26 00:31:11;;;;;;;3.40;3.10;;;;;;;;;;5089921;28;20274;-80
2021/07/26 00:34:07;;;;;;;4.37;3.27;;;;;;;;;;5073132;28;20526;-80
2021/07/26 00:36:52;;;;;;;4.37;3.20;;;;;;;;;;5062720;28;20237;-81
2021/07/26 00:39:20;;;;;;;3.67;3.33;;;;;;;;;;5061540;28;20175;-81
2021/07/26 00:41:47;;;;;;;4.20;3.57;;;;;;;;;;5071718;28;20180;-81
2021/07/26 00:44:14;;;;;;;6.27;3.50;;;;;;;;;;5091241;28;20621;-80
2021/07/26 00:46:40;;;;;;;5.80;3.27;;;;;;;;;;5090635;28;20199;-81
2021/07/26 00:49:08;;;;;;;3.83;3.43;;;;;;;;;;5072227;28;20191;-80
2021/07/26 00:51:35;;;;;;;3.07;2.80;;;;;;;;;;5072284;28;20208;-81
2021/07/26 00:54:02;;;;;;;5.30;3.37;;;;;;;;;;5090386;28;20183;-80
2021/07/26 00:56:28;;;;;;;4.27;2.87;;;;;;;;;;5090047;28;20212;-80
2021/07/26 00:58:54;;;;;;;3.67;3.37;;;;;;;;;;5090029;28;20536;-80
2021/07/26 01:01:20;;;;;;;3.83;3.23;;;;;;;;;;5077421;28;20214;-81
2021/07/26 01:03:46;;;;;;;3.60;3.20;;;;;;;;;;5101833;28;20168;-80
2021/07/26 01:06:12;;;;;;;3.23;2.80;;;;;;;;;;5072013;28;20202;-80
2021/07/26 01:08:39;;;;;;;3.50;3.03;;;;;;;;;;5106585;28;20172;-80
2021/07/26 01:11:05;;;;;;;4.83;3.23;;;;;;;;;;5071838;28;20218;-80
2021/07/26 01:13:31;;;;;;;4.17;2.87;;;;;;;;;;5072414;28;20164;-80
2021/07/26 01:15:57;;;;;;;3.63;3.33;;;;;;;;;;5071578;28;20187;-81
2021/07/26 01:18:27;;;;;;;3.90;3.50;;;;;;;;;;5090760;28;20183;-80
2021/07/26 01:21:04;;;;;;;4.13;3.73;;;;;;;;;;5072305;28;20174;-80
2021/07/26 01:23:31;;;;;;;4.33;3.33;;;;;;;;;;5071725;28;20635;-80
2021/07/26 01:25:57;;;;;;;3.17;2.87;;;;;;;;;;5071732;28;20259;-80
2021/07/26 01:28:26;;;;;;;3.83;3.33;;;;;;;;;;5072579;28;20175;-80
2021/07/26 01:30:52;;;;;;;4.33;3.00;;;;;;;;;;5072127;28;20172;-81
2021/07/26 01:33:18;;;;;;;4.97;3.00;;;;;;;;;;5069205;28;20532;-80
2021/07/26 01:35:45;;;;;;;3.43;3.00;;;;;;;;;;5085379;28;20567;-81
2021/07/26 01:38:11;;;;;;;3.20;3.00;;;;;;;;;;5063329;28;20296;-80
2021/07/26 01:40:39;;;;;;;4.03;3.20;;;;;;;;;;5080896;28;20260;-80
2021/07/26 01:43:06;;;;;;;3.40;3.10;;;;;;;;;;5071282;28;20268;-80
2021/07/26 01:45:33;;;;;;;3.43;3.10;;;;;;;;;;5071899;28;20179;-80
2021/07/26 01:48:03;;;;;;;2.73;2.53;;;;;;;;;;5070307;28;20185;-80
2021/07/26 01:50:31;;;;;;;3.80;3.40;;;;;;;;;;5072262;28;20271;-80
2021/07/26 01:52:58;;;;;;;5.50;3.37;;;;;;;;;;5072032;28;20202;-80
2021/07/26 01:55:24;;;;;;;3.33;2.90;;;;;;;;;;5090447;28;20568;-80
2021/07/26 01:57:50;;;;;;;6.10;3.03;;;;;;;;;;5097849;28;20612;-80
2021/07/26 02:00:16;;;;;;;6.03;3.33;;;;;;;;;;5092237;28;20182;-80
2021/07/26 02:02:42;;;;;;;3.43;3.07;;;;;;;;;;5109617;28;20214;-81
2021/07/26 02:05:09;;;;;;;3.87;3.43;;;;;;;;;;5076104;28;20176;-80
2021/07/26 02:07:36;;;;;;;3.43;3.00;;;;;;;;;;5075225;28;20289;-80
2021/07/26 02:10:02;;;;;;;3.53;2.70;;;;;;;;;;5093728;28;20193;-81
2021/07/26 02:12:28;;;;;;;4.47;2.83;;;;;;;;;;5075135;28;20702;-80
2021/07/26 02:14:54;;;;;;;3.90;3.50;;;;;;;;;;5093765;28;20182;-80
2021/07/26 02:17:20;;;;;;;4.63;3.10;;;;;;;;;;5075646;28;20201;-80
2021/07/26 02:19:46;;;;;;;3.17;2.80;;;;;;;;;;5075619;28;20640;-80
2021/07/26 02:22:12;;;;;;;3.67;3.13;;;;;;;;;;5068083;28;20178;-80
2021/07/26 02:24:38;;;;;;;6.17;3.53;;;;;;;;;;5075840;28;20177;-80
2021/07/26 02:27:04;;;;;;;3.83;3.27;;;;;;;;;;5093656;28;20247;-80
2021/07/26 02:29:30;;;;;;;3.93;3.10;;;;;;;;;;5088264;28;20185;-81
2021/07/26 02:31:57;;;;;;;3.60;3.30;;;;;;;;;;5072772;28;20261;-81
2021/07/26 02:34:23;;;;;;;4.87;4.47;;;;;;;;;;5093862;28;20191;-80
2021/07/26 02:36:49;;;;;;;2.97;2.73;;;;;;;;;;5075067;28;20272;-80
2021/07/26 02:39:14;;;;;;;3.73;3.40;;;;;;;;;;5075396;28;20227;-80
2021/07/26 02:41:44;;;;;;;3.37;3.07;;;;;;;;;;5088820;28;20209;-81
2021/07/26 02:44:10;;;;;;;3.73;3.43;;;;;;;;;;5072461;28;20203;-80
2021/07/26 02:46:36;;;;;;;3.40;3.10;;;;;;;;;;5116263;28;20221;-81
2021/07/26 02:49:02;;;;;;;3.07;2.80;;;;;;;;;;5083063;28;20584;-80
2021/07/26 02:51:28;;;;;;;4.97;3.43;;;;;;;;;;5073436;28;20207;-81
2021/07/26 02:53:55;;;;;;;3.03;2.77;;;;;;;;;;5100166;28;20183;-80
2021/07/26 02:56:21;;;;;;;5.10;3.33;;;;;;;;;;5091688;28;20320;-80
2021/07/26 02:58:48;;;;;;;3.97;2.90;;;;;;;;;;5083625;28;20206;-80
2021/07/26 03:01:14;;;;;;;3.70;3.10;;;;;;;;;;5084194;28;20195;-81
2021/07/26 03:03:40;;;;;;;3.33;3.03;;;;;;;;;;5118157;28;20181;-80
2021/07/26 03:06:13;;;;;;;3.53;3.23;;;;;;;;;;5081975;28;20176;-80
2021/07/26 03:08:39;;;;;;;3.50;3.20;;;;;;;;;;5077188;28;20624;-81
2021/07/26 03:11:10;;;;;;;3.77;3.10;;;;;;;;;;5073921;28;20216;-80
2021/07/26 03:13:36;;;;;;;3.63;2.90;;;;;;;;;;5095650;28;20202;-80
2021/07/26 03:16:06;;;;;;;3.27;3.00;;;;;;;;;;5093667;28;20195;-81
2021/07/26 03:18:32;;;;;;;3.00;2.60;;;;;;;;;;5094980;28;20188;-81
2021/07/26 03:20:58;;;;;;;3.60;3.30;;;;;;;;;;5076356;28;20191;-81
2021/07/26 03:23:24;;;;;;;3.30;3.00;;;;;;;;;;5075613;28;20600;-80
2021/07/26 03:25:50;;;;;;;4.37;3.10;;;;;;;;;;5076179;28;20207;-81
2021/07/26 03:28:16;;;;;;;5.23;3.03;;;;;;;;;;5076064;28;20166;-81
2021/07/26 03:30:42;;;;;;;3.60;3.23;;;;;;;;;;5075584;28;20512;-80
2021/07/26 03:33:08;;;;;;;2.77;2.53;;;;;;;;;;5075636;28;20234;-80
2021/07/26 03:35:34;;;;;;;4.30;2.67;;;;;;;;;;5093678;28;20176;-80
2021/07/26 03:38:00;;;;;;;4.43;3.07;;;;;;;;;;5075572;28;20170;-80
2021/07/26 03:40:27;;;;;;;3.23;2.67;;;;;;;;;;5073878;28;20375;-80
2021/07/26 03:42:53;;;;;;;4.07;3.67;;;;;;;;;;5080325;28;20189;-81
2021/07/26 03:45:20;;;;;;;3.13;2.83;;;;;;;;;;5106648;28;20189;-80
2021/07/26 03:47:46;;;;;;;5.47;2.80;;;;;;;;;;5074977;28;20207;-81
2021/07/26 03:50:16;;;;;;;3.27;3.07;;;;;;;;;;5074496;28;20178;-81
2021/07/26 03:52:49;;;;;;;2.93;2.73;;;;;;;;;;5058007;28;20195;-80
2021/07/26 03:55:17;;;;;;;3.87;3.53;;;;;;;;;;5092865;28;20172;-80
2021/07/26 03:57:43;;;;;;;3.20;2.83;;;;;;;;;;5070678;28;20620;-81
2021/07/26 04:00:11;;;;;;;2.80;2.60;;;;;;;;;;5072935;28;20622;-81
2021/07/26 04:02:38;;;;;;;3.47;3.17;;;;;;;;;;5072728;28;20913;-81
2021/07/26 04:05:05;;;;;;;3.43;3.00;;;;;;;;;;5079435;28;20220;-81
2021/07/26 04:07:35;;;;;;;2.97;2.77;;;;;;;;;;5077460;28;20694;-80
2021/07/26 04:10:05;;;;;;;3.27;2.97;;;;;;;;;;5092742;28;20269;-81
2021/07/26 04:12:33;;;;;;;4.90;3.17;;;;;;;;;;5073783;28;20232;-80
2021/07/26 04:15:06;;;;;;;3.60;2.93;;;;;;;;;;5073922;28;20171;-81
2021/07/26 04:17:32;;;;;;;3.43;3.13;;;;;;;;;;5079177;28;20577;-80
2021/07/26 04:19:58;;;;;;;3.33;3.03;;;;;;;;;;5093617;28;20273;-80
2021/07/26 04:22:24;;;;;;;2.57;2.37;;;;;;;;;;5073242;28;20185;-80
2021/07/26 04:24:50;;;;;;;2.80;2.60;;;;;;;;;;5073109;28;20196;-81
2021/07/26 04:27:16;;;;;;;3.10;2.80;;;;;;;;;;5090406;28;20611;-81
2021/07/26 04:29:42;;;;;;;2.97;2.77;;;;;;;;;;5068885;28;20666;-81
2021/07/26 04:32:10;;;;;;;3.43;3.00;;;;;;;;;;5091692;28;20205;-81
2021/07/26 04:34:36;;;;;;;3.93;2.60;;;;;;;;;;5073994;28;20598;-81
2021/07/26 04:37:02;;;;;;;3.77;3.20;;;;;;;;;;5073434;28;20180;-81
2021/07/26 04:39:28;;;;;;;3.50;3.10;;;;;;;;;;5073121;28;20176;-81
2021/07/26 04:41:55;;;;;;;3.90;2.93;;;;;;;;;;5072990;28;20278;-80
2021/07/26 04:44:21;;;;;;;4.30;3.03;;;;;;;;;;5073158;28;20184;-81
2021/07/26 04:46:47;;;;;;;2.93;2.73;;;;;;;;;;5090352;28;20187;-81
2021/07/26 04:49:13;;;;;;;3.37;2.87;;;;;;;;;;5073638;28;20188;-81
2021/07/26 04:51:39;;;;;;;3.27;2.90;;;;;;;;;;5106546;28;20631;-81
2021/07/26 04:54:05;;;;;;;4.13;3.10;;;;;;;;;;5073161;28;20925;-80
2021/07/26 04:56:31;;;;;;;4.43;3.50;;;;;;;;;;5072559;28;20219;-80
2021/07/26 04:58:57;;;;;;;5.07;2.90;;;;;;;;;;5073053;28;20180;-80
2021/07/26 05:01:23;;;;;;;2.87;2.67;;;;;;;;;;5072730;28;20181;-80
2021/07/26 05:03:49;;;;;;;2.90;2.70;;;;;;;;;;5073327;28;20184;-80
2021/07/26 05:06:15;;;;;;;3.43;2.90;;;;;;;;;;5072818;28;20203;-80
2021/07/26 05:08:41;;;;;;;3.30;3.00;;;;;;;;;;5106757;28;20233;-81
2021/07/26 05:11:07;;;;;;;2.77;2.57;;;;;;;;;;5100949;28;20199;-81
2021/07/26 05:13:33;;;;;;;4.00;2.63;;;;;;;;;;5073003;28;20176;-81
2021/07/26 05:15:59;;;;;;;6.20;4.00;;;;;;;;;;5091125;28;20174;-80
2021/07/26 05:18:25;;;;;;;3.73;2.80;;;;;;;;;;5072408;28;20649;-81
2021/07/26 05:20:51;;;;;;;4.27;3.40;;;;;;;;;;5090464;28;20164;-80
2021/07/26 05:23:17;;;;;;;3.73;2.90;;;;;;;;;;5106093;28;20238;-80
2021/07/26 05:25:44;;;;;;;3.30;3.00;;;;;;;;;;5071707;28;20168;-80
2021/07/26 05:28:10;;;;;;;4.43;3.40;;;;;;;;;;5072032;28;20211;-80
2021/07/26 05:30:36;;;;;;;4.00;3.50;;;;;;;;;;5072402;28;20251;-80
2021/07/26 05:33:02;;;;;;;3.53;3.23;;;;;;;;;;5106253;28;20232;-80
2021/07/26 05:35:28;;;;;;;5.23;3.40;;;;;;;;;;5074987;28;20638;-80
2021/07/26 05:37:54;;;;;;;3.60;3.30;;;;;;;;;;5094239;28;20515;-80
2021/07/26 05:40:20;;;;;;;4.43;3.43;;;;;;;;;;5076087;28;20414;-81
2021/07/26 05:42:46;;;;;;;4.67;3.30;;;;;;;;;;5107932;28;20262;-80
2021/07/26 05:45:12;;;;;;;3.60;3.27;;;;;;;;;;5076416;28;20259;-80
2021/07/26 05:47:39;;;;;;;4.37;3.40;;;;;;;;;;5110535;28;20840;-80
2021/07/26 05:50:05;;;;;;;3.77;3.47;;;;;;;;;;5076231;28;20183;-80
2021/07/26 05:52:32;;;;;;;4.20;3.43;;;;;;;;;;5075995;28;20664;-79
2021/07/26 05:54:58;;;;;;;3.53;3.23;;;;;;;;;;5095103;28;20721;-79
2021/07/26 05:57:26;;;;;;;5.13;3.77;;;;;;;;;;5075061;28;20565;-79
2021/07/26 05:59:56;;;;;;;3.43;3.13;;;;;;;;;;5073460;28;20228;-78
2021/07/26 06:02:22;;;;;;;5.13;3.33;;;;;;;;;;5102721;28;20191;-79
2021/07/26 06:04:49;;;;;;;5.30;3.80;;;;;;;;;;5072678;28;20283;-79
2021/07/26 06:07:17;;;;;;;4.13;3.30;;;;;;;;;;5074769;28;20214;-79
2021/07/26 06:09:46;;;;;;;3.57;3.27;;;;;;;;;;5094059;28;20221;-79
2021/07/26 06:12:12;;;;;;;5.87;3.73;;;;;;;;;;5108574;28;20203;-78
2021/07/26 06:14:38;;;;;;;4.07;3.40;;;;;;;;;;5093678;28;20183;-78
2021/07/26 06:17:04;;;;;;;3.87;3.07;;;;;;;;;;5106763;28;20177;-79
2021/07/26 06:19:30;;;;;;;7.47;3.23;;;;;;;;;;5076920;28;20176;-78
2021/07/26 06:21:56;;;;;;;4.47;3.50;;;;;;;;;;5093204;28;20233;-78
2021/07/26 06:24:23;;;;;;;3.40;3.10;;;;;;;;;;5069379;28;20176;-79
2021/07/26 06:26:49;;;;;;;3.93;3.27;;;;;;;;;;5073578;28;20231;-79
2021/07/26 06:29:15;;;;;;;5.50;3.67;;;;;;;;;;5074625;28;20185;-79
2021/07/26 06:31:43;;;;;;;4.10;3.47;;;;;;;;;;5074746;28;20289;-78
2021/07/26 06:34:09;;;;;;;3.67;3.37;;;;;;;;;;5093018;28;20229;-79
2021/07/26 06:36:36;;;;;;;4.23;3.00;;;;;;;;;;5074597;28;20173;-80
2021/07/26 06:39:02;;;;;;;4.07;3.37;;;;;;;;;;5075020;28;20177;-80
2021/07/26 06:41:28;;;;;;;3.53;3.23;;;;;;;;;;5066137;28;20229;-80
2021/07/26 06:43:55;;;;;;;5.60;3.17;;;;;;;;;;5071634;28;20364;-79
2021/07/26 06:46:21;;;;;;;3.30;3.00;;;;;;;;;;5073843;28;20274;-79
2021/07/26 06:48:47;;;;;;;3.70;3.03;;;;;;;;;;5108230;28;20209;-79
2021/07/26 06:51:13;;;;;;;3.30;2.90;;;;;;;;;;5091869;28;20207;-80
2021/07/26 06:53:39;;;;;;;6.13;3.50;;;;;;;;;;5074142;28;20186;-80
2021/07/26 06:56:06;;;;;;;3.50;3.20;;;;;;;;;;5104325;28;20556;-80
2021/07/26 06:58:33;;;;;;;4.10;3.23;;;;;;;;;;5069539;28;20720;-80
2021/07/26 07:01:05;;;;;;;4.83;2.80;;;;;;;;;;5070537;28;20174;-80
2021/07/26 07:03:32;;;;;;;3.27;2.97;;;;;;;;;;5103544;28;20241;-80
2021/07/26 07:06:08;;;;;;;3.73;3.00;;;;;;;;;;5070222;28;20192;-80
2021/07/26 07:08:35;;;;;;;3.40;2.73;;;;;;;;;;5070222;28;20194;-79
2021/07/26 07:11:14;;;;;;;3.07;2.77;;;;;;;;;;5071953;28;20231;-79
2021/07/26 07:13:41;;;;;;;6.23;3.00;;;;;;;;;;5104676;28;20178;-79
2021/07/26 07:16:08;;;;;;;3.63;3.07;;;;;;;;;;5071977;28;20184;-78
2021/07/26 07:18:34;;;;;;;3.77;2.90;;;;;;;;;;5070637;28;20187;-78
2021/07/26 07:21:00;;;;;;;2.40;2.20;;;;;;;;;;5099955;28;20204;-79
2021/07/26 07:23:26;;;;;;;3.13;2.80;;;;;;;;;;5085269;28;20258;-79
2021/07/26 07:25:54;;;;;;;3.30;2.73;;;;;;;;;;5071034;28;20177;-79
2021/07/26 07:28:20;;;;;;;3.00;2.70;;;;;;;;;;5069136;28;20180;-79
2021/07/26 07:30:46;;;;;;;6.90;3.03;;;;;;;;;;5070164;28;20165;-79
2021/07/26 07:33:12;;;;;;;4.53;2.80;;;;;;;;;;5093399;28;20242;-79
2021/07/26 07:35:39;;;;;;;3.00;2.70;;;;;;;;;;5069724;28;20300;-79
2021/07/26 07:38:05;;;;;;;2.70;2.50;;;;;;;;;;5070391;28;20260;-79
2021/07/26 07:40:31;;;;;;;3.90;2.70;;;;;;;;;;5069949;28;20284;-78
2021/07/26 07:42:57;;;;;;;4.67;2.70;;;;;;;;;;5059140;28;20630;-78
2021/07/26 07:45:26;;;;;;;3.87;2.70;;;;;;;;;;5104884;28;20184;-90
2021/07/26 07:47:55;;;;;;;3.40;2.83;;;;;;;;;;5104698;28;20766;-89
2021/07/26 07:50:21;;;;;;;5.50;3.07;;;;;;;;;;5071783;28;20188;-90
2021/07/26 07:52:47;;;;;;;2.90;2.70;;;;;;;;;;5069249;28;20202;-91
2021/07/26 07:55:14;;;;;;;4.07;2.83;;;;;;;;;;5106044;28;20227;-88
2021/07/26 07:57:40;;;;;;;2.83;2.63;;;;;;;;;;5070546;28;20232;-89
2021/07/26 08:00:09;;;;;;;3.27;2.70;;;;;;;;;;5070249;28;20213;-89
2021/07/26 08:02:35;;;;;;;2.80;2.60;;;;;;;;;;5106547;28;21195;-90
2021/07/26 08:05:01;;;;;;;3.53;2.87;;;;;;;;;;5073371;28;20189;-87
2021/07/26 08:07:27;;;;;;;5.07;2.40;;;;;;;;;;5072818;28;20296;-87
2021/07/26 08:09:53;;;;;;;3.77;2.60;;;;;;;;;;5106038;28;20172;-88
2021/07/26 08:12:19;;;;;;;2.50;2.30;;;;;;;;;;5072632;28;20208;-88
2021/07/26 08:14:45;;;;;;;4.90;2.73;;;;;;;;;;5067986;28;20208;-87
2021/07/26 08:17:11;;;;;;;3.37;3.07;;;;;;;;;;5104117;28;20942;-85
2021/07/26 08:19:38;;;;;;;2.67;2.47;;;;;;;;;;5070616;28;20168;-85
2021/07/26 08:22:04;;;;;;;4.50;2.50;;;;;;;;;;5070239;28;20211;-83
2021/07/26 08:24:30;;;;;;;5.33;4.20;;;;;;;;;;5075862;28;20182;-86
2021/07/26 08:26:56;;;;;;;2.93;2.63;;;;;;;;;;5060205;28;20654;-86
2021/07/26 08:29:22;;;;;;;3.40;2.73;;;;;;;;;;5062854;28;20297;-86
2021/07/26 08:31:49;;;;;;;3.20;2.90;;;;;;;;;;5053567;28;20256;-89
2021/07/26 08:34:15;;;;;;;3.00;2.70;;;;;;;;;;5054263;28;20178;-89
2021/07/26 08:36:41;;;;;;;3.17;2.87;;;;;;;;;;5089778;28;20489;-88
2021/07/26 08:39:09;;;;;;;2.93;2.73;;;;;;;;;;5055954;28;20180;-88
2021/07/26 08:41:35;;;;;;;2.80;2.50;;;;;;;;;;5063456;28;20256;-87
2021/07/26 08:44:01;;;;;;;4.53;2.97;;;;;;;;;;5053480;28;20208;-79
2021/07/26 08:46:30;;;;;;;5.30;2.90;;;;;;;;;;5086537;28;20192;-80
2021/07/26 08:48:56;;;;;;;3.30;3.00;;;;;;;;;;5084385;28;20707;-79
2021/07/26 08:51:24;;;;;;;7.47;3.20;;;;;;;;;;5072058;28;20281;-79
2021/07/26 08:53:51;;;;;;;2.60;2.40;;;;;;;;;;5059275;28;20183;-79
2021/07/26 08:56:17;;;;;;;4.37;2.63;;;;;;;;;;5076812;28;20226;-80
2021/07/26 08:58:43;;;;;;;4.73;2.90;;;;;;;;;;5050368;28;20224;-79
2021/07/26 09:01:13;;;;;;;2.37;2.17;;;;;;;;;;5082232;28;20170;-79
2021/07/26 09:03:39;;;;;;;2.77;2.50;;;;;;;;;;5082249;28;20184;-79
2021/07/26 09:06:05;;;;;;;4.77;2.33;;;;;;;;;;5049671;28;20626;-79
2021/07/26 09:08:33;;;;;;;4.40;2.80;;;;;;;;;;5050742;28;20178;-86
2021/07/26 09:11:01;;;;;;;2.83;2.40;;;;;;;;;;5086570;28;20674;-79
2021/07/26 09:13:39;;;;;;;3.60;2.70;;;;;;;;;;5052832;28;20645;-79
2021/07/26 09:16:15;;;;;;;2.60;2.37;;;;;;;;;;5086882;28;20180;-79
2021/07/26 09:18:42;;;;;;;3.73;2.50;;;;;;;;;;5069466;28;20183;-80
2021/07/26 09:21:08;;;;;;;2.90;2.60;;;;;;;;;;5069441;28;20188;-79
2021/07/26 09:23:38;;;;;;;2.53;2.27;;;;;;;;;;5069540;28;20189;-79
2021/07/26 09:26:24;;;;;;;3.20;2.90;;;;;;;;;;5069372;28;20501;-78
2021/07/26 09:28:50;;;;;;;2.53;2.33;;;;;;;;;;5079343;28;20486;-79
2021/07/26 09:31:16;;;;;;;3.30;2.57;;;;;;;;;;5031631;28;20181;-79
2021/07/26 09:33:43;;;;;;;3.13;2.93;;;;;;;;;;5072095;28;20288;-79
2021/07/26 09:36:13;;;;;;;2.67;2.47;;;;;;;;;;5054467;28;20584;-79
2021/07/26 09:38:48;;;;;;;3.80;2.80;;;;;;;;;;5069297;28;20193;-79
2021/07/26 09:41:15;;;;;;;2.87;2.67;;;;;;;;;;5085794;28;20231;-80
2021/07/26 09:43:41;;;;;;;3.67;2.63;;;;;;;;;;5052873;28;20177;-79
2021/07/26 09:46:08;;;;;;;3.07;2.80;;;;;;;;;;5069151;28;20682;-81
2021/07/26 09:48:34;;;;;;;3.20;2.90;;;;;;;;;;5057666;28;20489;-79
2021/07/26 09:51:03;;;;;;;2.53;2.33;;;;;;;;;;5052181;28;20581;-79
2021/07/26 09:53:29;;;;;;;3.45;3.10;;;;;;;;;;5038971;28;20772;-79
2021/07/26 09:55:57;;;;;;;4.40;3.03;;;;;;;;;;5073830;28;20694;-81
2021/07/26 09:58:36;;;;;;;3.83;2.70;;;;;;;;;;5093352;28;20180;-83
2021/07/26 10:01:02;;;;;;;4.00;2.93;;;;;;;;;;5076445;28;20588;-87
2021/07/26 10:03:28;;;;;;;6.13;3.10;;;;;;;;;;5110248;28;20199;-85
2021/07/26 10:05:54;;;;;;;6.47;3.07;;;;;;;;;;5076699;28;20646;-85
2021/07/26 10:08:21;;;;;;;3.47;3.00;;;;;;;;;;5070435;28;20213;-85
2021/07/26 10:10:47;;;;;;;3.37;2.70;;;;;;;;;;5094620;28;20206;-82
2021/07/26 10:13:14;;;;;;;3.93;3.10;;;;;;;;;;5110155;28;20200;-91
2021/07/26 10:15:40;;;;;;;2.97;2.67;;;;;;;;;;5109594;28;20221;-84
2021/07/26 10:18:07;;;;;;;2.63;2.43;;;;;;;;;;5075809;28;20175;-88
2021/07/26 10:20:48;;;;;;;2.90;2.60;;;;;;;;;;5075082;28;20267;-88
2021/07/26 10:23:15;;;;;;;3.40;3.10;;;;;;;;;;5094093;28;20639;-87
2021/07/26 10:25:47;;;;;;;6.10;2.87;;;;;;;;;;5069451;28;20181;-82
2021/07/26 10:28:23;;;;;;;5.60;2.93;;;;;;;;;;5088065;28;20206;-83
2021/07/26 10:30:49;;;;;;;3.10;2.70;;;;;;;;;;5076203;28;20643;-83
2021/07/26 10:33:15;;;;;;;3.77;3.23;;;;;;;;;;5076491;28;20223;-87
2021/07/26 10:35:46;;;;;;;3.53;2.87;;;;;;;;;;5109944;28;20236;-84
2021/07/26 10:38:12;;;;;;;4.20;3.00;;;;;;;;;;5076040;28;20197;-84
2021/07/26 10:40:39;;;;;;;5.50;2.80;;;;;;;;;;5072596;28;20191;-83
2021/07/26 10:43:06;;;;;;;3.13;2.50;;;;;;;;;;5108308;28;20294;-82
2021/07/26 10:45:35;;;;;;;2.93;2.73;;;;;;;;;;5095204;28;20268;-82
2021/07/26 10:48:20;;;;;;;2.97;2.77;;;;;;;;;;5074129;28;20180;-86
2021/07/26 10:50:47;;;;;;;4.83;2.87;;;;;;;;;;5074013;28;20205;-86
2021/07/26 10:53:33;;;;;;;3.43;3.00;;;;;;;;;;5110484;28;20199;-85
2021/07/26 10:56:03;;;;;;;2.80;2.60;;;;;;;;;;5093931;28;20270;-83
2021/07/26 10:58:53;;;;;;;3.13;2.53;;;;;;;;;;5077217;28;20192;-84
2021/07/26 11:01:22;;;;;;;4.97;2.80;;;;;;;;;;5071842;28;20188;-84
2021/07/26 11:03:48;;;;;;;3.30;2.60;;;;;;;;;;5075482;28;20187;-84
2021/07/26 11:06:33;;;;;;;6.53;2.50;;;;;;;;;;5075865;28;20199;-85
2021/07/26 11:09:19;;;;;;;3.13;2.60;;;;;;;;;;5094963;28;20172;-84
2021/07/26 11:11:50;;;;;;;3.20;2.80;;;;;;;;;;5076094;28;20207;-85
2021/07/26 11:14:16;;;;;;;2.47;2.17;;;;;;;;;;5075486;28;20253;-85
2021/07/26 11:19:30;;;;;;;2.97;2.67;;;;;;;;;;5085060;28;20604;-86
2021/07/26 11:21:56;;;;;;;3.40;2.80;;;;;;;;;;5092044;28;20494;-86
2021/07/26 11:24:48;;;;;;;2.47;2.27;;;;;;;;;;5075808;28;20662;-85
2021/07/26 11:27:37;;;;;;;2.43;2.23;;;;;;;;;;5074302;28;20879;-84
2021/07/26 11:30:04;;;;;;;2.77;2.50;;;;;;;;;;5075620;28;20233;-84
2021/07/26 11:32:31;;;;;;;2.87;2.53;;;;;;;;;;5076470;28;20185;-83
2021/07/26 11:34:57;;;;;;;3.23;2.47;;;;;;;;;;5112935;28;20175;-83
2021/07/26 11:37:34;;;;;;;2.97;2.37;;;;;;;;;;5096142;28;20171;-86
2021/07/26 11:40:00;;;;;;;2.60;2.40;;;;;;;;;;5087907;28;20183;-87
2021/07/26 11:42:31;;;;;;;5.50;2.63;;;;;;;;;;5075558;28;20234;-87
2021/07/26 11:44:57;;;;;;;2.97;2.77;;;;;;;;;;5075782;28;20920;-88
2021/07/26 11:47:31;;;;;;;2.60;2.40;;;;;;;;;;5075913;28;20183;-87
2021/07/26 11:49:57;;;;;;;3.10;2.30;;;;;;;;;;5075959;28;20646;-84
2021/07/26 11:52:24;;;;;;;2.47;2.27;;;;;;;;;;5075725;28;20200;-88
2021/07/26 11:54:50;;;;;;;4.23;2.77;;;;;;;;;;5077095;28;20182;-86
2021/07/26 11:57:16;;;;;;;2.73;2.53;;;;;;;;;;5070965;28;20313;-87
2021/07/26 11:59:55;;;;;;;2.40;2.20;;;;;;;;;;5071686;28;20944;-87
2021/07/26 12:02:24;;;;;;;2.40;2.20;;;;;;;;;;5073546;28;20295;-88
2021/07/26 12:04:50;;;;;;;3.63;2.30;;;;;;;;;;5072479;28;20238;-86
2021/07/26 12:07:16;;;;;;;3.17;2.90;;;;;;;;;;5072000;28;20209;-83
2021/07/26 12:09:49;;;;;;;2.47;2.27;;;;;;;;;;5071573;28;20188;-85
2021/07/26 12:12:16;;;;;;;2.90;2.70;;;;;;;;;;5071891;28;20214;-86
2021/07/26 12:14:43;;;;;;;2.60;2.30;;;;;;;;;;5072181;28;20211;-83
2021/07/26 12:17:09;;;;;;;3.03;2.83;;;;;;;;;;5069237;28;20255;-82
2021/07/26 12:19:36;;;;;;;2.50;2.30;;;;;;;;;;5066325;28;20198;-86
2021/07/26 12:22:15;;;;;;;2.60;2.40;;;;;;;;;;5072234;28;20582;-85
2021/07/26 12:24:47;;;;;;;3.20;2.53;;;;;;;;;;5069824;28;20210;-85
2021/07/26 12:27:26;;;;;;;3.63;2.67;;;;;;;;;;5071204;28;20216;-85
2021/07/26 12:29:56;;;;;;;3.60;2.63;;;;;;;;;;5073225;28;20259;-84
2021/07/26 12:32:22;;;;;;;2.57;2.37;;;;;;;;;;5071132;28;20245;-84
2021/07/26 12:35:07;;;;;;;2.70;2.50;;;;;;;;;;5071810;28;20178;-86
2021/07/26 12:37:33;;;;;;;2.83;2.63;;;;;;;;;;5071355;28;20210;-84
2021/07/26 12:40:15;;;;;;;2.80;2.60;;;;;;;;;;5072386;28;20182;-83
2021/07/26 12:42:42;;;;;;;3.37;2.80;;;;;;;;;;5070975;28;20177;-84
2021/07/26 12:45:24;;;;;;;2.57;2.37;;;;;;;;;;5072072;28;20175;-84
2021/07/26 12:47:53;;;;;;;2.63;2.43;;;;;;;;;;5069629;28;20188;-84
2021/07/26 12:50:19;;;;;;;2.67;2.47;;;;;;;;;;5070980;28;20263;-85
2021/07/26 12:52:45;;;;;;;2.53;2.33;;;;;;;;;;5063591;28;20195;-84
2021/07/26 12:55:15;;;;;;;3.00;2.50;;;;;;;;;;5070846;28;20176;-83
2021/07/26 12:57:41;;;;;;;2.13;2.03;;;;;;;;;;5070416;28;20311;-83
2021/07/26 13:00:07;;;;;;;2.67;2.47;;;;;;;;;;5070895;28;20422;-82
2021/07/26 13:02:35;;;;;;;2.57;2.37;;;;;;;;;;5071232;28;20181;-85
2021/07/26 13:05:03;;;;;;;2.67;2.47;;;;;;;;;;5071928;28;20195;-86
2021/07/26 13:07:29;;;;;;;4.53;2.10;;;;;;;;;;5070839;28;20710;-87
2021/07/26 13:09:55;;;;;;;2.17;1.97;;;;;;;;;;5070838;28;20172;-88
2021/07/26 13:12:21;;;;;;;2.30;2.10;;;;;;;;;;5071737;28;20209;-87
2021/07/26 13:14:47;;;;;;;2.67;2.47;;;;;;;;;;5072130;28;20179;-86
2021/07/26 13:17:13;;;;;;;2.27;2.07;;;;;;;;;;5070646;28;20176;-86
2021/07/26 13:19:39;;;;;;;2.90;2.60;;;;;;;;;;5069692;28;20194;-86
2021/07/26 13:22:05;;;;;;;5.23;2.63;;;;;;;;;;5068946;28;20181;-88
2021/07/26 13:24:31;;;;;;;3.10;2.30;;;;;;;;;;5071006;28;20187;-89
2021/07/26 13:26:57;;;;;;;2.70;2.50;;;;;;;;;;5102426;28;20249;-89
2021/07/26 13:29:23;;;;;;;3.10;2.47;;;;;;;;;;5069169;28;20547;-87
2021/07/26 13:31:49;;;;;;;2.77;2.50;;;;;;;;;;5069565;28;20293;-86
2021/07/26 13:34:15;;;;;;;3.00;2.70;;;;;;;;;;5070941;28;20179;-86
2021/07/26 13:36:44;;;;;;;3.00;2.77;;;;;;;;;;5070358;28;20239;-86
2021/07/26 13:39:14;;;;;;;5.57;2.50;;;;;;;;;;5071112;28;20183;-84
2021/07/26 13:41:40;;;;;;;3.70;2.70;;;;;;;;;;5070272;28;20301;-87
2021/07/26 13:44:06;;;;;;;4.97;2.97;;;;;;;;;;5070795;28;20179;-87
2021/07/26 13:46:32;;;;;;;2.80;2.60;;;;;;;;;;5070576;28;20183;-84
2021/07/26 13:48:59;;;;;;;3.27;2.57;;;;;;;;;;5070653;28;20171;-85
2021/07/26 13:51:25;;;;;;;2.50;2.30;;;;;;;;;;5072241;28;20244;-85
2021/07/26 13:53:51;;;;;;;2.70;2.50;;;;;;;;;;5070389;28;20182;-85
2021/07/26 13:56:17;;;;;;;2.80;2.60;;;;;;;;;;5071707;28;20279;-88
2021/07/26 13:58:43;;;;;;;3.10;2.90;;;;;;;;;;5065103;28;20599;-88
2021/07/26 14:01:09;;;;;;;3.10;2.87;;;;;;;;;;5074584;28;20186;-88
2021/07/26 14:03:35;;;;;;;3.33;3.03;;;;;;;;;;5076452;28;20312;-86
2021/07/26 14:06:02;;;;;;;7.67;3.27;;;;;;;;;;5075529;28;20184;-87
2021/07/26 14:08:28;;;;;;;6.80;3.43;;;;;;;;;;5075258;28;20199;-87
2021/07/26 14:10:54;;;;;;;3.50;3.20;;;;;;;;;;5073249;28;20180;-86
2021/07/26 14:13:20;;;;;;;3.50;2.83;;;;;;;;;;5067205;28;20565;-86
2021/07/26 14:15:46;;;;;;;3.00;2.80;;;;;;;;;;5058122;28;20183;-85
2021/07/26 14:18:12;;;;;;;5.03;3.40;;;;;;;;;;5057930;28;20188;-87
2021/07/26 14:20:38;;;;;;;3.27;2.93;;;;;;;;;;5091680;28;20180;-87
2021/07/26 14:23:04;;;;;;;3.30;3.00;;;;;;;;;;5058437;28;20553;-84
2021/07/26 14:25:30;;;;;;;3.60;2.90;;;;;;;;;;5056922;28;20201;-79
2021/07/26 14:27:56;;;;;;;3.47;2.80;;;;;;;;;;5055280;28;20182;-81
2021/07/26 14:30:22;;;;;;;2.80;2.60;;;;;;;;;;5075622;28;20200;-78
2021/07/26 14:32:48;;;;;;;4.20;2.67;;;;;;;;;;5085979;28;20287;-79
2021/07/26 14:35:14;;;;;;;2.47;2.27;;;;;;;;;;5075241;28;20209;-79
2021/07/26 14:37:40;;;;;;;5.10;2.30;;;;;;;;;;5075590;28;20174;-80
2021/07/26 14:40:07;;;;;;;2.00;1.90;;;;;;;;;;5052822;28;20186;-78
2021/07/26 14:42:33;;;;;;;1.97;1.87;;;;;;;;;;5061579;28;20186;-79
2021/07/26 14:44:59;;;;;;;2.07;1.90;;;;;;;;;;5057444;28;20227;-78
2021/07/26 14:47:25;;;;;;;2.43;1.93;;;;;;;;;;5056430;28;20225;-78
2021/07/26 14:49:51;;;;;;;2.33;1.80;;;;;;;;;;5102487;28;20268;-80